Time;durP1;ratioP1;P1;durP2;ratioP2;P2;SDS_P1;SDS_P2;PMS_P1;PMS_P2;Temp;Humidity;BMP_temperature;BMP_pressure;BME280_temperature;BME280_humidity;BME280_pressure;Samples;Min_cycle;Max_cycle;Signal;HPM_P1;HPM_P2
2023/07/28 00:02:06;;;;;;;3.20;1.40;;;;;;;22.50;54.90;100513.69;10255824;28;96711;-78
2023/07/28 00:07:09;;;;;;;2.30;1.42;;;;;;;22.54;54.80;100517.78;10253066;28;96656;-78
2023/07/28 00:12:13;;;;;;;2.67;1.40;;;;;;;22.60;54.57;100508.38;10252951;28;96852;-78
2023/07/28 00:17:17;;;;;;;3.00;1.70;;;;;;;22.63;54.83;100500.91;10252596;28;96661;-78
2023/07/28 00:22:21;;;;;;;2.47;1.50;;;;;;;22.55;54.99;100492.69;10252147;28;96779;-78
2023/07/28 00:27:24;;;;;;;2.28;1.40;;;;;;;22.48;55.17;100485.28;10251956;28;96701;-78
2023/07/28 00:32:29;;;;;;;1.95;1.30;;;;;;;22.53;55.21;100494.66;10252091;28;97701;-78
2023/07/28 00:37:32;;;;;;;2.40;1.50;;;;;;;22.54;55.56;100490.16;10253284;28;97632;-78
2023/07/28 00:42:36;;;;;;;2.27;1.40;;;;;;;22.50;55.77;100486.00;10251570;28;96660;-78
2023/07/28 00:47:41;;;;;;;2.53;1.70;;;;;;;22.52;55.93;100484.88;10251502;28;96711;-78
2023/07/28 00:52:46;;;;;;;2.45;1.60;;;;;;;22.56;55.66;100480.09;10250999;28;97041;-78
2023/07/28 00:57:49;;;;;;;;;;;;;;;22.34;55.96;100467.69;10251638;28;96704;-78
2023/07/28 01:02:54;;;;;;;2.28;1.52;;;;;;;22.26;56.08;100467.47;10251556;28;97987;-78
2023/07/28 01:08:03;;;;;;;2.53;1.67;;;;;;;22.23;56.19;100467.72;10250403;28;96679;-78
2023/07/28 01:13:07;;;;;;;1.95;1.25;;;;;;;22.15;56.47;100461.31;10250553;28;97462;-78
2023/07/28 01:18:11;;;;;;;2.47;1.45;;;;;;;22.07;56.50;100469.16;10250214;28;96785;-78
2023/07/28 01:23:20;;;;;;;2.40;1.50;;;;;;;21.94;57.00;100460.38;10250342;28;96624;-78
2023/07/28 01:28:25;;;;;;;2.67;1.60;;;;;;;21.78;57.19;100460.81;10251173;28;96746;-78
2023/07/28 01:33:29;;;;;;;2.03;1.42;;;;;;;21.65;57.42;100454.78;10249898;28;96785;-78
2023/07/28 01:38:32;;;;;;;2.72;1.70;;;;;;;21.52;57.82;100451.38;10249464;28;96817;-78
2023/07/28 01:43:37;;;;;;;3.90;2.00;;;;;;;21.28;58.35;100454.22;10265718;28;98207;-78
2023/07/28 01:48:40;;;;;;;2.78;1.80;;;;;;;21.25;58.57;100445.59;10289846;28;96699;-78
2023/07/28 01:53:43;;;;;;;2.38;1.63;;;;;;;21.14;58.73;100453.59;10289966;28;97919;-78
2023/07/28 01:59:06;;;;;;;2.20;1.52;;;;;;;21.03;58.85;100443.75;10275154;28;96726;-78
2023/07/28 02:04:09;;;;;;;3.25;1.70;;;;;;;20.83;59.28;100455.16;10249157;28;96593;-78
2023/07/28 02:09:12;;;;;;;2.60;1.88;;;;;;;20.79;59.50;100452.88;10249114;28;96777;-78
2023/07/28 02:14:18;;;;;;;1.77;1.45;;;;;;;20.80;59.47;100452.75;10248920;28;96676;-78
2023/07/28 02:19:21;;;;;;;3.53;1.77;;;;;;;20.86;59.39;100446.88;10283339;28;96862;-78
2023/07/28 02:24:24;;;;;;;3.85;1.83;;;;;;;20.63;60.00;100444.31;10289033;28;96738;-78
2023/07/28 02:29:29;;;;;;;3.00;1.67;;;;;;;19.96;61.99;100452.13;10289026;28;96804;-78
2023/07/28 02:34:32;;;;;;;2.95;1.73;;;;;;;20.21;61.55;100448.44;10287129;28;97576;-78
2023/07/28 02:39:36;;;;;;;2.72;1.63;;;;;;;20.28;60.92;100445.19;10282616;28;96678;-78
2023/07/28 02:44:41;;;;;;;3.60;1.90;;;;;;;20.05;61.45;100443.41;10248361;28;96626;-78
2023/07/28 02:49:44;;;;;;;2.40;1.92;;;;;;;19.91;61.92;100440.91;10247873;28;96788;-77
2023/07/28 02:54:50;;;;;;;3.05;1.80;;;;;;;19.99;61.68;100433.22;10248133;28;96634;-78
2023/07/28 02:59:55;;;;;;;3.25;1.70;;;;;;;20.24;60.90;100429.50;10247522;28;96712;-78
2023/07/28 03:04:58;;;;;;;3.80;2.42;;;;;;;20.33;60.50;100432.38;10247831;28;97575;-78
2023/07/28 03:10:01;;;;;;;3.15;1.83;;;;;;;20.31;60.57;100428.09;10248981;28;97281;-78
2023/07/28 03:15:08;;;;;;;2.85;1.90;;;;;;;19.98;61.30;100428.81;10247519;28;97144;-78
2023/07/28 03:20:12;;;;;;;3.28;2.10;;;;;;;20.18;61.10;100436.19;10246762;28;96706;-78
2023/07/28 03:25:15;;;;;;;3.22;2.00;;;;;;;20.26;60.81;100427.56;10246703;28;96693;-78
2023/07/28 03:30:21;;;;;;;2.97;2.00;;;;;;;20.29;60.87;100425.50;10250664;28;96571;-78
2023/07/28 03:35:24;;;;;;;2.42;1.67;;;;;;;20.26;60.88;100416.88;10253804;28;96681;-78
2023/07/28 03:40:27;;;;;;;4.25;1.92;;;;;;;19.94;61.89;100419.31;10256686;28;96716;-78
2023/07/28 03:45:32;;;;;;;4.10;2.10;;;;;;;19.90;62.18;100415.19;10293814;28;97066;-78
2023/07/28 03:50:36;;;;;;;2.92;1.77;;;;;;;19.85;61.97;100401.34;10293958;28;97620;-78
2023/07/28 03:55:39;;;;;;;3.40;2.05;;;;;;;19.60;62.82;100412.13;10293916;28;96776;-78
2023/07/28 04:00:44;;;;;;;2.75;1.77;;;;;;;19.86;61.99;100404.84;10293317;28;97916;-78
2023/07/28 04:05:47;;;;;;;2.42;1.77;;;;;;;19.96;61.69;100408.53;10293182;28;96671;-78
2023/07/28 04:10:51;;;;;;;4.45;2.20;;;;;;;19.93;61.56;100412.28;10292693;28;96732;-78
2023/07/28 04:15:55;;;;;;;2.53;1.80;;;;;;;19.52;62.93;100419.88;10290655;28;96632;-78
2023/07/28 04:20:59;;;;;;;3.42;1.58;;;;;;;19.30;63.58;100414.38;10292640;28;96546;-78
2023/07/28 04:26:02;;;;;;;2.22;1.63;;;;;;;19.34;63.59;100421.16;10292694;28;96689;-78
2023/07/28 04:31:07;;;;;;;2.55;1.90;;;;;;;19.11;64.11;100424.66;10292249;28;96680;-78
2023/07/28 04:36:10;;;;;;;2.60;1.60;;;;;;;19.03;64.47;100427.88;10252184;28;96729;-78
2023/07/28 04:41:14;;;;;;;3.17;1.90;;;;;;;19.03;64.69;100425.19;10250461;28;96754;-78
2023/07/28 04:46:19;;;;;;;2.90;1.83;;;;;;;19.27;63.95;100422.56;10251376;28;97237;-78
2023/07/28 04:51:22;;;;;;;3.00;1.80;;;;;;;19.25;63.93;100427.16;10278574;28;96746;-78
2023/07/28 04:56:25;;;;;;;2.60;1.80;;;;;;;19.37;63.87;100431.63;10291468;28;96691;-78
2023/07/28 05:01:30;;;;;;;3.28;1.80;;;;;;;19.55;63.10;100430.31;10291401;28;96662;-78
2023/07/28 05:06:33;;;;;;;3.28;1.85;;;;;;;19.63;63.03;100432.41;10278748;28;96765;-78
2023/07/28 05:11:36;;;;;;;3.13;1.77;;;;;;;19.27;64.33;100442.09;10250970;28;96884;-78
2023/07/28 05:16:42;;;;;;;2.67;1.70;;;;;;;19.54;63.60;100438.44;10250308;28;97830;-78
2023/07/28 05:21:46;;;;;;;2.67;1.92;;;;;;;19.00;64.82;100445.91;10250026;28;96691;-78
2023/07/28 05:26:49;;;;;;;3.08;1.95;;;;;;;18.93;65.01;100450.81;10250817;28;96852;-78
2023/07/28 05:31:55;;;;;;;3.20;1.80;;;;;;;18.84;65.53;100463.94;10250422;28;97196;-78
2023/07/28 05:36:58;;;;;;;2.97;2.00;;;;;;;18.98;65.13;100466.50;10249802;28;96866;-77
2023/07/28 05:42:02;;;;;;;2.58;1.70;;;;;;;18.78;65.80;100477.72;10274363;28;97315;-78
2023/07/28 05:47:07;;;;;;;4.07;1.67;;;;;;;18.90;65.39;100469.72;10289759;28;96820;-78
2023/07/28 05:52:10;;;;;;;3.17;1.80;;;;;;;18.97;65.47;100470.13;10289447;28;96825;-78
2023/07/28 05:57:14;;;;;;;2.50;1.77;;;;;;;19.16;65.05;100468.69;10287825;28;96774;-78
2023/07/28 06:02:18;;;;;;;3.55;1.88;;;;;;;19.22;65.21;100476.28;10258465;28;96726;-78
2023/07/28 06:07:22;;;;;;;4.80;1.83;;;;;;;19.29;65.25;100479.34;10249111;28;97318;-78
2023/07/28 06:12:25;;;;;;;4.32;1.83;;;;;;;19.25;65.65;100484.06;10249034;28;96733;-78
2023/07/28 06:17:30;;;;;;;2.80;2.00;;;;;;;19.30;65.80;100489.91;10248493;28;96942;-78
2023/07/28 06:22:33;;;;;;;3.72;1.95;;;;;;;19.42;65.70;100488.22;10248677;28;96623;-77
2023/07/28 06:27:36;;;;;;;2.70;1.63;;;;;;;19.55;65.59;100493.50;10248484;28;97395;-78
2023/07/28 06:32:41;;;;;;;3.67;2.35;;;;;;;19.69;65.54;100504.03;10249686;28;96914;-78
2023/07/28 06:37:44;;;;;;;3.25;1.90;;;;;;;19.94;64.92;100501.28;10248459;28;97678;-78
2023/07/28 06:42:48;;;;;;;2.30;1.83;;;;;;;19.92;65.24;100493.41;10248074;28;96696;-77
2023/07/28 06:47:53;;;;;;;2.58;1.85;;;;;;;19.90;65.50;100498.00;10253265;28;96719;-78
2023/07/28 06:52:56;;;;;;;2.85;1.88;;;;;;;20.06;65.35;100489.69;10288570;28;97211;-78
2023/07/28 06:58:00;;;;;;;2.67;1.77;;;;;;;20.20;65.02;100493.00;10288303;28;96664;-78
2023/07/28 07:03:05;;;;;;;3.28;2.20;;;;;;;20.39;64.63;100490.69;10288961;28;96818;-78
2023/07/28 07:08:08;;;;;;;3.47;1.98;;;;;;;20.20;65.09;100498.34;10294285;28;96954;-78
2023/07/28 07:13:12;;;;;;;3.72;2.22;;;;;;;20.13;64.54;100504.31;10295059;28;97189;-78
2023/07/28 07:18:17;;;;;;;3.17;1.92;;;;;;;20.32;63.42;100510.81;10294159;28;97694;-78
2023/07/28 07:23:20;;;;;;;3.47;2.10;;;;;;;20.60;62.60;100514.09;10294908;28;96959;-78
2023/07/28 07:28:24;;;;;;;2.53;1.67;;;;;;;20.99;62.25;100511.00;10294699;28;97935;-78
2023/07/28 07:33:29;;;;;;;3.17;2.13;;;;;;;21.39;61.57;100506.91;10294795;28;97208;-78
2023/07/28 07:38:32;;;;;;;3.47;2.00;;;;;;;21.60;61.37;100509.69;10291935;28;96714;-77
2023/07/28 07:43:36;;;;;;;3.47;2.22;;;;;;;22.10;60.41;100504.59;10255344;28;97239;-78
2023/07/28 07:48:40;;;;;;;3.00;2.00;;;;;;;22.09;60.17;100502.88;10253206;28;97643;-78
2023/07/28 07:53:44;;;;;;;3.15;2.00;;;;;;;22.07;59.71;100501.31;10253473;28;97970;-78
2023/07/28 07:58:47;;;;;;;2.88;1.77;;;;;;;22.28;59.28;100497.69;10253648;28;97192;-78
2023/07/28 08:03:52;;;;;;;3.10;1.90;;;;;;;22.61;59.03;100494.84;10252785;28;96688;-78
2023/07/28 08:08:56;;;;;;;2.70;1.83;;;;;;;22.54;58.70;100493.66;10252720;28;96716;-78
2023/07/28 08:14:00;;;;;;;2.97;1.58;;;;;;;22.89;58.40;100501.41;10253888;28;97493;-78
2023/07/28 08:19:04;;;;;;;3.53;1.80;;;;;;;22.93;58.63;100499.28;10251358;28;96823;-78
2023/07/28 08:24:08;;;;;;;2.00;1.45;;;;;;;22.98;58.47;100497.06;10252259;28;96838;-78
2023/07/28 08:29:11;;;;;;;1.97;1.47;;;;;;;22.86;58.45;100504.34;10251749;28;97175;-78
2023/07/28 08:34:17;;;;;;;2.47;1.30;;;;;;;23.12;58.49;100496.72;10252401;28;96775;-78
2023/07/28 08:39:20;;;;;;;2.00;1.13;;;;;;;23.33;58.38;100501.06;10251685;28;96593;-78
2023/07/28 08:44:24;;;;;;;1.20;0.93;;;;;;;23.43;58.10;100498.41;10251762;28;98034;-78
2023/07/28 08:49:28;;;;;;;1.60;0.90;;;;;;;23.62;57.73;100498.50;10258080;22;98912;-79
2023/07/28 08:54:32;;;;;;;1.80;1.02;;;;;;;23.67;57.79;100491.72;10251194;28;96815;-78
2023/07/28 08:59:36;;;;;;;2.00;0.97;;;;;;;23.72;57.93;100490.47;10249525;28;96888;-78
2023/07/28 09:04:40;;;;;;;1.17;0.73;;;;;;;23.71;57.94;100503.03;10252382;28;97612;-78
2023/07/28 09:10:02;;;;;;;1.02;0.70;;;;;;;24.43;56.41;100495.47;10246517;28;97866;-78
2023/07/28 09:15:07;;;;;;;1.60;1.00;;;;;;;24.67;55.72;100501.28;10250369;28;96886;-78
2023/07/28 09:20:14;;;;;;;1.27;0.88;;;;;;;24.91;55.68;100487.34;10249777;28;96860;-78
2023/07/28 09:25:18;;;;;;;1.38;0.80;;;;;;;25.24;54.89;100494.91;10249980;28;96700;-78
2023/07/28 09:30:21;;;;;;;2.23;0.80;;;;;;;25.27;55.03;100490.09;10249965;28;97422;-78
2023/07/28 09:35:26;;;;;;;0.65;0.60;;;;;;;25.55;54.49;100475.59;10250270;28;96741;-78
2023/07/28 09:40:31;;;;;;;0.85;0.65;;;;;;;25.66;54.23;100472.72;10250528;28;96751;-78
2023/07/28 09:45:36;;;;;;;0.63;0.55;;;;;;;25.78;54.34;100471.53;10249918;28;96604;-79
2023/07/28 09:50:42;;;;;;;1.15;0.63;;;;;;;25.52;54.82;100480.47;10249470;28;96769;-78
2023/07/28 09:55:47;;;;;;;1.13;0.70;;;;;;;25.87;53.89;100470.63;10274477;28;96719;-78
2023/07/28 10:00:51;;;;;;;2.53;0.73;;;;;;;25.74;54.05;100470.13;10249003;28;96662;-79
2023/07/28 10:05:57;;;;;;;1.17;0.52;;;;;;;26.07;53.90;100465.94;10249141;28;96986;-79
2023/07/28 10:11:03;;;;;;;0.75;0.50;;;;;;;26.35;52.78;100459.41;10248358;28;97092;-78
2023/07/28 10:16:07;;;;;;;1.13;0.73;;;;;;;26.30;53.36;100461.75;10289045;28;96927;-78
2023/07/28 10:21:17;;;;;;;1.10;0.57;;;;;;;26.55;53.09;100457.44;10289371;28;96671;-78
2023/07/28 10:26:32;;;;;;;1.17;0.60;;;;;;;26.79;52.28;100460.28;10289410;28;97117;-79
2023/07/28 10:31:37;;;;;;;0.93;0.55;;;;;;;26.92;51.42;100442.66;10288256;28;96793;-78
2023/07/28 10:36:45;;;;;;;0.40;0.30;;;;;;;27.03;51.21;100438.03;10288640;28;96947;-78
2023/07/28 10:42:05;;;;;;;0.80;0.40;;;;;;;27.21;51.47;100430.69;10295307;28;96718;-78
2023/07/28 10:47:10;;;;;;;0.95;0.57;;;;;;;27.20;51.10;100424.41;10295158;28;97128;-79
2023/07/28 10:52:17;;;;;;;0.22;0.22;;;;;;;27.50;50.90;100423.88;10286577;28;96562;-79
2023/07/28 10:57:20;;;;;;;0.70;0.50;;;;;;;27.79;50.34;100415.34;10254963;28;96706;-79
2023/07/28 11:02:23;;;;;;;1.13;0.47;;;;;;;27.85;50.74;100420.94;10254706;28;96925;-79
2023/07/28 11:07:45;;;;;;;1.13;0.65;;;;;;;27.89;50.57;100416.06;10254384;28;96730;-78
2023/07/28 11:12:50;;;;;;;0.70;0.50;;;;;;;27.88;50.03;100423.31;10254670;28;96668;-79
2023/07/28 11:18:11;;;;;;;0.60;0.40;;;;;;;28.17;49.62;100413.88;10251154;28;96757;-79
2023/07/28 11:23:17;;;;;;;0.57;0.50;;;;;;;28.25;49.53;100417.44;10255243;28;97233;-78
2023/07/28 11:28:21;;;;;;;0.88;0.52;;;;;;;28.15;49.44;100408.63;10253655;28;96773;-79
2023/07/28 11:33:24;;;;;;;;;;;;;;;27.75;49.99;100400.47;10254885;28;97731;-79
2023/07/28 11:38:31;;;;;;;0.88;0.55;;;;;;;27.59;49.58;100395.00;10255273;28;96736;-79
2023/07/28 11:43:34;;;;;;;1.20;0.70;;;;;;;28.08;49.84;100400.31;10253622;28;96663;-78
2023/07/28 11:48:38;;;;;;;0.93;0.70;;;;;;;28.35;49.35;100385.63;10252679;28;97548;-79
2023/07/28 11:54:00;;;;;;;0.73;0.57;;;;;;;28.45;49.14;100396.28;10247464;28;96904;-79
2023/07/28 11:59:04;;;;;;;1.58;0.80;;;;;;;28.46;48.91;100396.13;10253263;28;96664;-78
2023/07/28 12:04:26;;;;;;;1.02;0.40;;;;;;;28.72;48.43;100388.59;10253365;28;97885;-79
2023/07/28 12:09:34;;;;;;;1.10;0.75;;;;;;;28.64;47.96;100395.91;10248766;28;96725;-79
2023/07/28 12:14:38;;;;;;;1.40;0.85;;;;;;;28.89;48.31;100398.41;10253330;28;97689;-78
2023/07/28 12:19:56;;;;;;;1.10;0.70;;;;;;;28.85;47.50;100393.47;10251631;28;97898;-78
2023/07/28 12:25:01;;;;;;;1.38;0.70;;;;;;;29.01;47.12;100375.34;10252596;28;96799;-79
2023/07/28 12:30:07;;;;;;;1.13;0.70;;;;;;;29.17;47.36;100380.69;10253782;28;97535;-79
2023/07/28 12:35:18;;;;;;;;;;;;;;;29.47;47.14;100368.16;10252601;28;96772;-79
2023/07/28 12:40:23;;;;;;;1.10;0.53;;;;;;;29.56;46.70;100360.84;10252173;28;97094;-79
2023/07/28 12:45:29;;;;;;;0.82;0.80;;;;;;;29.72;46.33;100348.03;10244840;28;96625;-79
2023/07/28 12:50:52;;;;;;;0.80;0.70;;;;;;;29.88;46.53;100344.34;10251304;28;96749;-79
2023/07/28 12:56:00;;;;;;;1.10;0.85;;;;;;;29.70;46.13;100341.94;10285071;28;96767;-79
2023/07/28 13:01:04;;;;;;;1.30;0.88;;;;;;;29.81;45.96;100327.09;10290462;28;96712;-79
2023/07/28 13:06:07;;;;;;;1.83;0.73;;;;;;;30.19;45.59;100328.84;10210369;28;97155;-78
2023/07/28 13:11:14;;;;;;;1.15;0.63;;;;;;;30.23;45.45;100322.00;10210411;28;96845;-79
2023/07/28 13:16:19;;;;;;;1.38;0.73;;;;;;;30.28;44.90;100317.69;10210539;28;97385;-79
2023/07/28 13:21:23;;;;;;;0.55;0.50;;;;;;;30.65;44.46;100314.06;10238811;28;96851;-79
2023/07/28 13:26:28;;;;;;;0.65;0.43;;;;;;;30.53;44.42;100315.56;10251035;28;97021;-78
2023/07/28 13:31:31;;;;;;;1.58;0.95;;;;;;;30.44;44.14;100307.72;10250196;28;96878;-78
2023/07/28 13:36:36;;;;;;;0.90;0.60;;;;;;;30.53;43.82;100317.44;10249725;28;96761;-78
2023/07/28 13:41:41;;;;;;;1.13;0.70;;;;;;;30.77;43.34;100312.59;10249806;28;97624;-79
2023/07/28 13:46:44;;;;;;;0.93;0.75;;;;;;;30.95;43.04;100313.06;10249127;28;98016;-79
2023/07/28 13:51:47;;;;;;;;;;;;;;;31.26;43.22;100312.84;10250220;28;96632;-79
2023/07/28 13:56:55;;;;;;;1.30;1.00;;;;;;;31.17;42.72;100301.19;10250368;28;96753;-79
2023/07/28 14:02:16;;;;;;;2.13;1.25;;;;;;;31.23;43.44;100303.13;10248397;28;96589;-79
2023/07/28 14:07:19;;;;;;;2.25;1.40;;;;;;;31.20;43.42;100295.38;10249182;28;97666;-79
2023/07/28 14:12:24;;;;;;;1.77;1.17;;;;;;;31.04;43.45;100286.59;10276372;28;96951;-79
2023/07/28 14:17:28;;;;;;;2.20;1.45;;;;;;;30.86;43.92;100302.47;10289877;28;97279;-79
2023/07/28 14:22:32;;;;;;;1.58;1.02;;;;;;;31.32;42.60;100293.03;10289637;28;96618;-79
2023/07/28 14:27:36;;;;;;;2.85;1.23;;;;;;;31.24;42.91;100298.56;10276071;28;96632;-79
2023/07/28 14:32:40;;;;;;;1.83;1.00;;;;;;;31.21;43.06;100304.38;10248704;28;97270;-79
2023/07/28 14:37:43;;;;;;;1.75;1.10;;;;;;;31.38;43.07;100307.72;10248713;28;97652;-79
2023/07/28 14:42:47;;;;;;;;;;;;;;;31.10;42.20;100307.56;10248704;28;96759;-78
2023/07/28 14:47:51;;;;;;;1.55;0.95;;;;;;;31.39;42.83;100303.97;10248549;28;97661;-78
2023/07/28 14:52:54;;;;;;;1.38;1.00;;;;;;;31.62;42.79;100291.88;10248114;28;96709;-78
2023/07/28 14:57:59;;;;;;;1.27;0.85;;;;;;;30.63;43.17;100294.41;10247768;28;96626;-79
2023/07/28 15:03:03;;;;;;;1.15;0.70;;;;;;;30.87;43.07;100305.00;10270693;28;97568;-78
2023/07/28 15:08:07;;;;;;;0.98;0.60;;;;;;;31.03;43.17;100280.31;10288405;28;96570;-78
2023/07/28 15:13:11;;;;;;;1.38;0.95;;;;;;;30.96;42.98;100293.00;10288101;28;96902;-78
2023/07/28 15:18:15;;;;;;;1.88;0.70;;;;;;;30.95;43.66;100291.31;10286194;28;96671;-79
2023/07/28 15:23:18;;;;;;;;;;;;;;;31.00;42.92;100298.88;10288851;28;97716;-79
2023/07/28 15:28:22;;;;;;;1.30;0.73;;;;;;;30.96;42.88;100289.41;10294483;28;96811;-79
2023/07/28 15:33:29;;;;;;;1.08;0.70;;;;;;;31.09;42.98;100292.31;10295031;28;96849;-79
2023/07/28 15:38:32;;;;;;;0.65;0.60;;;;;;;31.04;43.75;100283.91;10293193;28;96804;-78
2023/07/28 15:43:37;;;;;;;0.60;0.47;;;;;;;31.00;43.47;100282.56;10294441;28;96804;-78
2023/07/28 15:48:40;;;;;;;0.73;0.52;;;;;;;30.61;44.46;100285.59;10293695;28;97577;-78
2023/07/28 15:53:47;;;;;;;1.58;1.02;;;;;;;30.62;44.13;100286.44;10293833;28;98474;-79
2023/07/28 15:58:53;;;;;;;1.25;0.70;;;;;;;30.73;44.13;100286.00;10293791;28;96602;-78
2023/07/28 16:03:57;;;;;;;1.50;0.90;;;;;;;30.17;45.16;100279.31;10293580;28;96575;-79
2023/07/28 16:09:00;;;;;;;1.27;0.80;;;;;;;29.90;46.03;100280.72;10291723;28;97240;-79
2023/07/28 16:14:20;;;;;;;0.93;0.60;;;;;;;29.74;46.49;100269.16;10293082;28;97454;-79
2023/07/28 16:19:23;;;;;;;0.90;0.60;;;;;;;29.24;47.73;100271.56;10292426;28;96794;-79
2023/07/28 16:24:28;;;;;;;0.75;0.45;;;;;;;29.14;48.25;100275.34;10292788;28;96610;-78
2023/07/28 16:29:32;;;;;;;0.55;0.40;;;;;;;29.15;48.60;100276.19;10291708;28;96760;-78
2023/07/28 16:34:35;;;;;;;1.20;0.45;;;;;;;28.80;49.64;100282.09;10292394;28;97228;-78
2023/07/28 16:39:39;;;;;;;0.52;0.30;;;;;;;29.00;49.12;100286.94;10292504;28;97539;-79
2023/07/28 16:44:43;;;;;;;0.32;0.30;;;;;;;28.81;49.72;100284.63;10292270;28;96767;-79
2023/07/28 16:49:46;;;;;;;0.88;0.38;;;;;;;28.60;50.70;100292.50;10291859;28;97003;-78
2023/07/28 16:54:50;;;;;;;0.68;0.43;;;;;;;28.75;50.36;100288.06;10261096;28;96745;-79
2023/07/28 16:59:54;;;;;;;0.28;0.20;;;;;;;28.40;51.34;100293.91;10256039;28;97223;-78
2023/07/28 17:04:58;;;;;;;0.77;0.38;;;;;;;28.58;50.89;100289.13;10291564;28;96645;-78
2023/07/28 17:10:01;;;;;;;0.30;0.30;;;;;;;27.94;52.73;100300.06;10291016;28;96836;-78
2023/07/28 17:15:07;;;;;;;0.47;0.40;;;;;;;28.01;53.16;100311.91;10291486;28;97669;-78
2023/07/28 17:20:11;;;;;;;0.70;0.40;;;;;;;27.97;53.17;100319.50;10290163;28;96731;-79
2023/07/28 17:25:14;;;;;;;0.45;0.32;;;;;;;28.03;53.20;100326.94;10290947;28;97282;-78
2023/07/28 17:30:19;;;;;;;0.55;0.35;;;;;;;27.80;53.84;100339.47;10290456;28;96577;-78
2023/07/28 17:35:22;;;;;;;0.82;0.30;;;;;;;27.62;54.50;100340.56;10290778;28;96801;-78
2023/07/28 17:40:26;;;;;;;0.70;0.38;;;;;;;27.10;56.64;100350.75;10290318;28;96626;-78
2023/07/28 17:45:32;;;;;;;0.32;0.30;;;;;;;27.17;56.68;100353.66;10290377;28;96738;-78
2023/07/28 17:50:35;;;;;;;0.98;0.45;;;;;;;26.98;56.71;100361.00;10283781;28;96809;-78
2023/07/28 17:55:39;;;;;;;0.57;0.30;;;;;;;26.79;57.58;100363.94;10249431;28;97893;-78
2023/07/28 18:00:44;;;;;;;0.35;0.20;;;;;;;26.60;59.33;100372.28;10247934;28;96780;-78
2023/07/28 18:05:47;;;;;;;0.45;0.25;;;;;;;26.38;60.68;100367.41;10249431;28;97104;-78
2023/07/28 18:10:50;;;;;;;0.33;0.20;;;;;;;26.42;60.39;100379.56;10279286;28;97267;-78
2023/07/28 18:15:55;;;;;;;0.40;0.30;;;;;;;26.55;60.16;100385.41;10289560;28;97583;-78
2023/07/28 18:20:58;;;;;;;0.38;0.35;;;;;;;26.46;60.38;100394.44;10289479;28;96612;-78
2023/07/28 18:26:02;;;;;;;0.53;0.30;;;;;;;26.21;61.46;100397.09;10289330;28;96888;-78
2023/07/28 18:31:08;;;;;;;0.85;0.65;;;;;;;26.16;61.68;100397.53;10289422;28;97153;-78
2023/07/28 18:36:12;;;;;;;1.23;0.20;;;;;;;26.19;62.09;100394.56;10289177;28;96719;-78
2023/07/28 18:41:15;;;;;;;0.50;0.40;;;;;;;26.17;62.04;100401.09;10287305;28;97163;-78
2023/07/28 18:46:21;;;;;;;0.90;0.73;;;;;;;25.95;63.44;100397.06;10288806;28;97493;-78
2023/07/28 18:51:24;;;;;;;0.65;0.60;;;;;;;25.92;63.06;100400.88;10285781;28;97749;-78
2023/07/28 18:56:27;;;;;;;0.77;0.50;;;;;;;25.74;63.74;100402.72;10247756;28;96612;-78
2023/07/28 19:01:32;;;;;;;0.97;0.57;;;;;;;25.77;63.69;100410.53;10253418;28;96990;-78
2023/07/28 19:06:37;;;;;;;1.23;0.93;;;;;;;25.68;64.20;100415.94;10254966;28;96847;-78
2023/07/28 19:11:40;;;;;;;1.83;1.10;;;;;;;25.61;64.33;100404.06;10252542;28;97226;-77
